sensor_id;sensor_type;location;lat;lon;timestamp;P1;durP1;ratioP1;P2;durP2;ratioP2
21657;SDS011;10990;48.174;9.782;2023-09-19T00:01:39;2.42;;;1.60;;
21657;SDS011;10990;48.174;9.782;2023-09-19T00:04:07;3.25;;;1.85;;
21657;SDS011;10990;48.174;9.782;2023-09-19T00:06:35;2.15;;;1.65;;
21657;SDS011;10990;48.174;9.782;2023-09-19T00:09:03;3.00;;;1.75;;
21657;SDS011;10990;48.174;9.782;2023-09-19T00:11:29;3.65;;;2.00;;
21657;SDS011;10990;48.174;9.782;2023-09-19T00:13:56;4.10;;;1.90;;
21657;SDS011;10990;48.174;9.782;2023-09-19T00:16:24;2.60;;;1.63;;
21657;SDS011;10990;48.174;9.782;2023-09-19T00:18:52;2.28;;;1.88;;
21657;SDS011;10990;48.174;9.782;2023-09-19T00:21:20;2.38;;;1.50;;
21657;SDS011;10990;48.174;9.782;2023-09-19T00:23:47;3.58;;;2.00;;
21657;SDS011;10990;48.174;9.782;2023-09-19T00:26:14;2.25;;;1.67;;
21657;SDS011;10990;48.174;9.782;2023-09-19T00:28:46;2.85;;;1.55;;
21657;SDS011;10990;48.174;9.782;2023-09-19T00:31:13;3.47;;;1.60;;
21657;SDS011;10990;48.174;9.782;2023-09-19T00:33:40;3.33;;;1.70;;
21657;SDS011;10990;48.174;9.782;2023-09-19T00:36:07;3.80;;;1.90;;
21657;SDS011;10990;48.174;9.782;2023-09-19T00:38:36;1.83;;;1.60;;
21657;SDS011;10990;48.174;9.782;2023-09-19T00:41:02;3.58;;;2.00;;
21657;SDS011;10990;48.174;9.782;2023-09-19T00:43:29;3.67;;;1.50;;
21657;SDS011;10990;48.174;9.782;2023-09-19T00:45:59;3.72;;;1.90;;
21657;SDS011;10990;48.174;9.782;2023-09-19T00:48:28;1.77;;;1.55;;
21657;SDS011;10990;48.174;9.782;2023-09-19T00:50:55;3.50;;;1.70;;
21657;SDS011;10990;48.174;9.782;2023-09-19T00:53:24;1.90;;;1.60;;
21657;SDS011;10990;48.174;9.782;2023-09-19T00:55:54;4.10;;;1.60;;
21657;SDS011;10990;48.174;9.782;2023-09-19T00:58:29;2.80;;;1.60;;
21657;SDS011;10990;48.174;9.782;2023-09-19T01:01:00;4.30;;;1.70;;
21657;SDS011;10990;48.174;9.782;2023-09-19T01:03:28;2.35;;;1.60;;
21657;SDS011;10990;48.174;9.782;2023-09-19T01:05:55;2.90;;;1.52;;
21657;SDS011;10990;48.174;9.782;2023-09-19T01:08:22;1.73;;;1.27;;
21657;SDS011;10990;48.174;9.782;2023-09-19T01:10:51;3.20;;;1.38;;
21657;SDS011;10990;48.174;9.782;2023-09-19T01:13:25;2.45;;;1.60;;
21657;SDS011;10990;48.174;9.782;2023-09-19T01:16:00;2.60;;;1.52;;
21657;SDS011;10990;48.174;9.782;2023-09-19T01:18:40;3.50;;;1.40;;
21657;SDS011;10990;48.174;9.782;2023-09-19T01:21:15;3.13;;;1.73;;
21657;SDS011;10990;48.174;9.782;2023-09-19T01:23:57;3.75;;;1.85;;
21657;SDS011;10990;48.174;9.782;2023-09-19T01:26:50;2.58;;;1.77;;
21657;SDS011;10990;48.174;9.782;2023-09-19T01:29:33;3.47;;;1.58;;
21657;SDS011;10990;48.174;9.782;2023-09-19T01:32:06;3.13;;;1.55;;
21657;SDS011;10990;48.174;9.782;2023-09-19T01:34:44;1.52;;;1.42;;
21657;SDS011;10990;48.174;9.782;2023-09-19T01:37:13;3.13;;;1.70;;
21657;SDS011;10990;48.174;9.782;2023-09-19T01:39:45;3.95;;;1.80;;
21657;SDS011;10990;48.174;9.782;2023-09-19T01:42:18;4.53;;;2.08;;
21657;SDS011;10990;48.174;9.782;2023-09-19T01:44:54;2.13;;;1.50;;
21657;SDS011;10990;48.174;9.782;2023-09-19T01:47:31;4.32;;;1.73;;
21657;SDS011;10990;48.174;9.782;2023-09-19T01:50:02;1.92;;;1.50;;
21657;SDS011;10990;48.174;9.782;2023-09-19T01:52:40;3.42;;;1.90;;
21657;SDS011;10990;48.174;9.782;2023-09-19T01:55:15;5.97;;;2.00;;
21657;SDS011;10990;48.174;9.782;2023-09-19T01:57:48;4.63;;;1.65;;
21657;SDS011;10990;48.174;9.782;2023-09-19T02:00:18;3.30;;;1.65;;
21657;SDS011;10990;48.174;9.782;2023-09-19T02:02:50;3.42;;;1.70;;
21657;SDS011;10990;48.174;9.782;2023-09-19T02:05:22;2.83;;;1.60;;
21657;SDS011;10990;48.174;9.782;2023-09-19T02:07:50;2.25;;;1.63;;
21657;SDS011;10990;48.174;9.782;2023-09-19T02:10:19;3.22;;;1.60;;
21657;SDS011;10990;48.174;9.782;2023-09-19T02:12:46;6.15;;;1.98;;
21657;SDS011;10990;48.174;9.782;2023-09-19T02:15:13;2.15;;;1.70;;
21657;SDS011;10990;48.174;9.782;2023-09-19T02:17:41;1.98;;;1.65;;
21657;SDS011;10990;48.174;9.782;2023-09-19T02:20:10;3.83;;;1.90;;
21657;SDS011;10990;48.174;9.782;2023-09-19T02:22:40;2.95;;;1.65;;
21657;SDS011;10990;48.174;9.782;2023-09-19T02:25:07;2.47;;;1.50;;
21657;SDS011;10990;48.174;9.782;2023-09-19T02:27:35;2.10;;;1.75;;
21657;SDS011;10990;48.174;9.782;2023-09-19T02:30:03;3.67;;;1.63;;
21657;SDS011;10990;48.174;9.782;2023-09-19T02:32:31;5.53;;;2.13;;
21657;SDS011;10990;48.174;9.782;2023-09-19T02:35:01;2.92;;;1.60;;
21657;SDS011;10990;48.174;9.782;2023-09-19T02:37:31;2.45;;;1.63;;
21657;SDS011;10990;48.174;9.782;2023-09-19T02:39:58;2.25;;;1.50;;
21657;SDS011;10990;48.174;9.782;2023-09-19T02:42:25;4.43;;;1.60;;
21657;SDS011;10990;48.174;9.782;2023-09-19T02:44:52;1.50;;;1.40;;
21657;SDS011;10990;48.174;9.782;2023-09-19T02:47:20;3.22;;;1.58;;
21657;SDS011;10990;48.174;9.782;2023-09-19T02:49:47;3.13;;;1.70;;
21657;SDS011;10990;48.174;9.782;2023-09-19T02:52:14;2.08;;;1.48;;
21657;SDS011;10990;48.174;9.782;2023-09-19T02:54:42;3.60;;;2.03;;
21657;SDS011;10990;48.174;9.782;2023-09-19T02:57:10;3.97;;;1.63;;
21657;SDS011;10990;48.174;9.782;2023-09-19T02:59:37;4.45;;;1.58;;
21657;SDS011;10990;48.174;9.782;2023-09-19T03:02:04;1.23;;;1.13;;
21657;SDS011;10990;48.174;9.782;2023-09-19T03:04:31;4.57;;;1.80;;
21657;SDS011;10990;48.174;9.782;2023-09-19T03:06:59;1.92;;;1.50;;
21657;SDS011;10990;48.174;9.782;2023-09-19T03:09:27;2.70;;;1.40;;
21657;SDS011;10990;48.174;9.782;2023-09-19T03:11:55;2.15;;;1.40;;
21657;SDS011;10990;48.174;9.782;2023-09-19T03:14:22;2.97;;;1.42;;
21657;SDS011;10990;48.174;9.782;2023-09-19T03:16:49;3.78;;;1.45;;
21657;SDS011;10990;48.174;9.782;2023-09-19T03:19:17;2.67;;;1.70;;
21657;SDS011;10990;48.174;9.782;2023-09-19T03:21:46;4.03;;;1.45;;
21657;SDS011;10990;48.174;9.782;2023-09-19T03:24:16;2.40;;;1.30;;
21657;SDS011;10990;48.174;9.782;2023-09-19T03:26:43;2.03;;;1.40;;
21657;SDS011;10990;48.174;9.782;2023-09-19T03:29:12;2.53;;;1.50;;
21657;SDS011;10990;48.174;9.782;2023-09-19T03:31:40;1.80;;;1.45;;
21657;SDS011;10990;48.174;9.782;2023-09-19T03:34:07;2.28;;;1.52;;
21657;SDS011;10990;48.174;9.782;2023-09-19T03:36:35;3.45;;;1.50;;
21657;SDS011;10990;48.174;9.782;2023-09-19T03:39:02;2.63;;;1.50;;
21657;SDS011;10990;48.174;9.782;2023-09-19T03:41:30;3.25;;;1.50;;
21657;SDS011;10990;48.174;9.782;2023-09-19T03:43:58;2.25;;;1.38;;
21657;SDS011;10990;48.174;9.782;2023-09-19T03:46:26;1.70;;;1.40;;
21657;SDS011;10990;48.174;9.782;2023-09-19T03:48:54;2.70;;;1.42;;
21657;SDS011;10990;48.174;9.782;2023-09-19T03:51:21;2.95;;;1.40;;
21657;SDS011;10990;48.174;9.782;2023-09-19T03:53:48;2.38;;;1.50;;
21657;SDS011;10990;48.174;9.782;2023-09-19T03:56:15;2.97;;;1.60;;
21657;SDS011;10990;48.174;9.782;2023-09-19T03:58:42;2.08;;;1.42;;
21657;SDS011;10990;48.174;9.782;2023-09-19T04:01:09;1.95;;;1.20;;
21657;SDS011;10990;48.174;9.782;2023-09-19T04:03:39;1.58;;;1.45;;
21657;SDS011;10990;48.174;9.782;2023-09-19T04:06:12;1.58;;;1.30;;
21657;SDS011;10990;48.174;9.782;2023-09-19T04:08:39;2.50;;;1.27;;
21657;SDS011;10990;48.174;9.782;2023-09-19T04:11:06;2.20;;;1.33;;
21657;SDS011;10990;48.174;9.782;2023-09-19T04:13:33;2.83;;;1.40;;
21657;SDS011;10990;48.174;9.782;2023-09-19T04:16:00;2.10;;;1.20;;
21657;SDS011;10990;48.174;9.782;2023-09-19T04:18:28;2.17;;;1.40;;
21657;SDS011;10990;48.174;9.782;2023-09-19T04:21:00;3.13;;;1.33;;
21657;SDS011;10990;48.174;9.782;2023-09-19T04:23:29;1.67;;;1.10;;
21657;SDS011;10990;48.174;9.782;2023-09-19T04:25:56;2.88;;;1.27;;
21657;SDS011;10990;48.174;9.782;2023-09-19T04:28:23;2.70;;;1.40;;
21657;SDS011;10990;48.174;9.782;2023-09-19T04:30:52;1.15;;;1.00;;
21657;SDS011;10990;48.174;9.782;2023-09-19T04:33:20;2.05;;;1.13;;
21657;SDS011;10990;48.174;9.782;2023-09-19T04:35:48;2.03;;;1.33;;
21657;SDS011;10990;48.174;9.782;2023-09-19T04:38:17;1.77;;;1.10;;
21657;SDS011;10990;48.174;9.782;2023-09-19T04:40:44;1.50;;;1.20;;
21657;SDS011;10990;48.174;9.782;2023-09-19T04:43:10;3.28;;;1.33;;
21657;SDS011;10990;48.174;9.782;2023-09-19T04:45:38;2.53;;;1.13;;
21657;SDS011;10990;48.174;9.782;2023-09-19T04:48:05;2.45;;;1.20;;
21657;SDS011;10990;48.174;9.782;2023-09-19T04:50:34;2.40;;;1.20;;
21657;SDS011;10990;48.174;9.782;2023-09-19T04:53:02;1.20;;;1.00;;
21657;SDS011;10990;48.174;9.782;2023-09-19T04:55:31;2.08;;;1.30;;
21657;SDS011;10990;48.174;9.782;2023-09-19T04:57:58;4.25;;;1.50;;
21657;SDS011;10990;48.174;9.782;2023-09-19T05:00:24;1.33;;;1.00;;
21657;SDS011;10990;48.174;9.782;2023-09-19T05:02:55;2.67;;;1.20;;
21657;SDS011;10990;48.174;9.782;2023-09-19T05:05:22;2.50;;;1.08;;
21657;SDS011;10990;48.174;9.782;2023-09-19T05:07:51;2.85;;;1.10;;
21657;SDS011;10990;48.174;9.782;2023-09-19T05:10:19;1.63;;;1.13;;
21657;SDS011;10990;48.174;9.782;2023-09-19T05:12:48;3.15;;;1.20;;
21657;SDS011;10990;48.174;9.782;2023-09-19T05:15:17;2.85;;;1.30;;
21657;SDS011;10990;48.174;9.782;2023-09-19T05:17:47;4.47;;;1.40;;
21657;SDS011;10990;48.174;9.782;2023-09-19T05:20:15;4.65;;;1.30;;
21657;SDS011;10990;48.174;9.782;2023-09-19T05:22:49;4.22;;;1.13;;
21657;SDS011;10990;48.174;9.782;2023-09-19T05:25:16;3.78;;;1.20;;
21657;SDS011;10990;48.174;9.782;2023-09-19T05:27:43;1.73;;;1.10;;
21657;SDS011;10990;48.174;9.782;2023-09-19T05:30:12;2.38;;;1.15;;
21657;SDS011;10990;48.174;9.782;2023-09-19T05:32:41;1.52;;;1.20;;
21657;SDS011;10990;48.174;9.782;2023-09-19T05:35:09;2.05;;;1.25;;
21657;SDS011;10990;48.174;9.782;2023-09-19T05:37:38;2.80;;;1.20;;
21657;SDS011;10990;48.174;9.782;2023-09-19T05:40:05;2.55;;;1.33;;
21657;SDS011;10990;48.174;9.782;2023-09-19T05:42:35;1.73;;;1.00;;
21657;SDS011;10990;48.174;9.782;2023-09-19T05:45:03;2.40;;;1.00;;
21657;SDS011;10990;48.174;9.782;2023-09-19T05:47:33;5.22;;;1.23;;
21657;SDS011;10990;48.174;9.782;2023-09-19T05:49:59;1.42;;;1.20;;
21657;SDS011;10990;48.174;9.782;2023-09-19T05:52:27;1.45;;;1.02;;
21657;SDS011;10990;48.174;9.782;2023-09-19T05:54:54;1.73;;;1.00;;
21657;SDS011;10990;48.174;9.782;2023-09-19T05:57:22;2.22;;;1.20;;
21657;SDS011;10990;48.174;9.782;2023-09-19T05:59:50;2.30;;;1.27;;
21657;SDS011;10990;48.174;9.782;2023-09-19T06:02:16;1.73;;;1.10;;
21657;SDS011;10990;48.174;9.782;2023-09-19T06:04:46;2.33;;;1.30;;
21657;SDS011;10990;48.174;9.782;2023-09-19T06:07:13;2.00;;;1.30;;
21657;SDS011;10990;48.174;9.782;2023-09-19T06:09:41;2.05;;;1.10;;
21657;SDS011;10990;48.174;9.782;2023-09-19T06:12:08;2.15;;;1.00;;
21657;SDS011;10990;48.174;9.782;2023-09-19T06:14:39;1.50;;;1.10;;
21657;SDS011;10990;48.174;9.782;2023-09-19T06:17:06;1.50;;;1.17;;
21657;SDS011;10990;48.174;9.782;2023-09-19T06:19:33;2.50;;;1.05;;
21657;SDS011;10990;48.174;9.782;2023-09-19T06:22:01;1.98;;;1.10;;
21657;SDS011;10990;48.174;9.782;2023-09-19T06:24:28;2.00;;;1.20;;
21657;SDS011;10990;48.174;9.782;2023-09-19T06:26:55;2.08;;;1.10;;
21657;SDS011;10990;48.174;9.782;2023-09-19T06:29:22;1.13;;;1.00;;
21657;SDS011;10990;48.174;9.782;2023-09-19T06:31:50;1.70;;;1.08;;
21657;SDS011;10990;48.174;9.782;2023-09-19T06:34:16;1.75;;;1.10;;
21657;SDS011;10990;48.174;9.782;2023-09-19T06:36:43;3.72;;;1.10;;
21657;SDS011;10990;48.174;9.782;2023-09-19T06:39:12;2.35;;;1.00;;
21657;SDS011;10990;48.174;9.782;2023-09-19T06:41:39;1.90;;;1.10;;
21657;SDS011;10990;48.174;9.782;2023-09-19T06:44:09;2.60;;;1.10;;
21657;SDS011;10990;48.174;9.782;2023-09-19T06:46:36;2.15;;;1.08;;
21657;SDS011;10990;48.174;9.782;2023-09-19T06:49:05;2.25;;;1.40;;
21657;SDS011;10990;48.174;9.782;2023-09-19T06:51:31;1.20;;;1.00;;
21657;SDS011;10990;48.174;9.782;2023-09-19T06:53:59;3.35;;;1.00;;
21657;SDS011;10990;48.174;9.782;2023-09-19T06:56:28;1.70;;;0.95;;
21657;SDS011;10990;48.174;9.782;2023-09-19T06:58:55;2.05;;;1.20;;
21657;SDS011;10990;48.174;9.782;2023-09-19T07:01:22;1.23;;;0.80;;
21657;SDS011;10990;48.174;9.782;2023-09-19T07:03:50;2.15;;;1.08;;
21657;SDS011;10990;48.174;9.782;2023-09-19T07:06:18;1.27;;;1.00;;
21657;SDS011;10990;48.174;9.782;2023-09-19T07:08:45;2.15;;;0.90;;
21657;SDS011;10990;48.174;9.782;2023-09-19T07:11:11;3.67;;;1.30;;
21657;SDS011;10990;48.174;9.782;2023-09-19T07:13:40;2.00;;;0.90;;
21657;SDS011;10990;48.174;9.782;2023-09-19T07:16:07;1.50;;;0.95;;
21657;SDS011;10990;48.174;9.782;2023-09-19T07:18:35;2.28;;;1.13;;
21657;SDS011;10990;48.174;9.782;2023-09-19T07:21:02;3.25;;;1.20;;
21657;SDS011;10990;48.174;9.782;2023-09-19T07:23:30;1.15;;;1.00;;
21657;SDS011;10990;48.174;9.782;2023-09-19T07:26:00;1.88;;;1.00;;
21657;SDS011;10990;48.174;9.782;2023-09-19T07:28:30;2.25;;;0.98;;
21657;SDS011;10990;48.174;9.782;2023-09-19T07:31:02;1.38;;;1.00;;
21657;SDS011;10990;48.174;9.782;2023-09-19T07:33:30;1.17;;;0.85;;
21657;SDS011;10990;48.174;9.782;2023-09-19T07:35:57;0.85;;;0.80;;
21657;SDS011;10990;48.174;9.782;2023-09-19T07:38:24;2.15;;;0.90;;
21657;SDS011;10990;48.174;9.782;2023-09-19T07:40:52;1.33;;;0.90;;
21657;SDS011;10990;48.174;9.782;2023-09-19T07:43:18;1.73;;;0.98;;
21657;SDS011;10990;48.174;9.782;2023-09-19T07:45:45;3.35;;;1.10;;
21657;SDS011;10990;48.174;9.782;2023-09-19T07:48:13;2.38;;;1.10;;
21657;SDS011;10990;48.174;9.782;2023-09-19T07:50:40;1.67;;;1.10;;
21657;SDS011;10990;48.174;9.782;2023-09-19T07:53:08;1.10;;;1.00;;
21657;SDS011;10990;48.174;9.782;2023-09-19T07:55:38;1.23;;;1.00;;
21657;SDS011;10990;48.174;9.782;2023-09-19T07:58:06;1.40;;;1.10;;
21657;SDS011;10990;48.174;9.782;2023-09-19T08:00:33;2.88;;;1.20;;
21657;SDS011;10990;48.174;9.782;2023-09-19T08:03:00;5.03;;;1.08;;
21657;SDS011;10990;48.174;9.782;2023-09-19T08:05:30;1.27;;;1.00;;
21657;SDS011;10990;48.174;9.782;2023-09-19T08:07:58;1.50;;;1.00;;
21657;SDS011;10990;48.174;9.782;2023-09-19T08:10:26;1.38;;;1.05;;
21657;SDS011;10990;48.174;9.782;2023-09-19T08:13:00;2.35;;;1.10;;
21657;SDS011;10990;48.174;9.782;2023-09-19T08:15:27;1.50;;;0.82;;
21657;SDS011;10990;48.174;9.782;2023-09-19T08:17:54;3.08;;;1.10;;
21657;SDS011;10990;48.174;9.782;2023-09-19T08:20:21;1.38;;;1.20;;
21657;SDS011;10990;48.174;9.782;2023-09-19T08:22:49;2.83;;;1.10;;
21657;SDS011;10990;48.174;9.782;2023-09-19T08:25:19;1.90;;;1.00;;
21657;SDS011;10990;48.174;9.782;2023-09-19T08:27:47;2.40;;;1.20;;
21657;SDS011;10990;48.174;9.782;2023-09-19T08:30:14;1.05;;;0.95;;
21657;SDS011;10990;48.174;9.782;2023-09-19T08:32:41;1.40;;;1.10;;
21657;SDS011;10990;48.174;9.782;2023-09-19T08:35:08;1.75;;;1.20;;
21657;SDS011;10990;48.174;9.782;2023-09-19T08:37:35;2.50;;;1.02;;
21657;SDS011;10990;48.174;9.782;2023-09-19T08:40:04;1.30;;;0.90;;
21657;SDS011;10990;48.174;9.782;2023-09-19T08:42:46;1.42;;;1.10;;
21657;SDS011;10990;48.174;9.782;2023-09-19T08:45:14;1.95;;;1.08;;
21657;SDS011;10990;48.174;9.782;2023-09-19T08:47:43;1.30;;;1.00;;
21657;SDS011;10990;48.174;9.782;2023-09-19T08:50:14;1.20;;;1.00;;
21657;SDS011;10990;48.174;9.782;2023-09-19T08:52:46;4.05;;;1.20;;
21657;SDS011;10990;48.174;9.782;2023-09-19T08:55:16;1.42;;;1.33;;
21657;SDS011;10990;48.174;9.782;2023-09-19T08:57:47;1.20;;;1.10;;
21657;SDS011;10990;48.174;9.782;2023-09-19T09:00:16;1.98;;;1.33;;
21657;SDS011;10990;48.174;9.782;2023-09-19T09:02:46;1.55;;;1.10;;
21657;SDS011;10990;48.174;9.782;2023-09-19T09:05:14;1.92;;;1.30;;
21657;SDS011;10990;48.174;9.782;2023-09-19T09:07:47;2.92;;;1.08;;
21657;SDS011;10990;48.174;9.782;2023-09-19T09:10:16;4.22;;;1.10;;
21657;SDS011;10990;48.174;9.782;2023-09-19T09:12:47;1.20;;;1.10;;
21657;SDS011;10990;48.174;9.782;2023-09-19T09:15:15;1.42;;;0.93;;
21657;SDS011;10990;48.174;9.782;2023-09-19T09:17:46;1.60;;;1.10;;
21657;SDS011;10990;48.174;9.782;2023-09-19T09:20:14;1.52;;;0.93;;
21657;SDS011;10990;48.174;9.782;2023-09-19T09:22:47;1.10;;;1.00;;
21657;SDS011;10990;48.174;9.782;2023-09-19T09:25:18;2.40;;;1.00;;
21657;SDS011;10990;48.174;9.782;2023-09-19T09:27:58;1.67;;;1.08;;
21657;SDS011;10990;48.174;9.782;2023-09-19T09:30:32;1.88;;;1.08;;
21657;SDS011;10990;48.174;9.782;2023-09-19T09:33:07;2.05;;;1.08;;
21657;SDS011;10990;48.174;9.782;2023-09-19T09:35:35;1.45;;;1.17;;
21657;SDS011;10990;48.174;9.782;2023-09-19T09:38:02;1.17;;;1.08;;
21657;SDS011;10990;48.174;9.782;2023-09-19T09:40:45;1.80;;;0.88;;
21657;SDS011;10990;48.174;9.782;2023-09-19T09:43:24;0.88;;;0.70;;
21657;SDS011;10990;48.174;9.782;2023-09-19T09:46:08;0.70;;;0.60;;
21657;SDS011;10990;48.174;9.782;2023-09-19T09:48:57;1.20;;;0.82;;
21657;SDS011;10990;48.174;9.782;2023-09-19T09:51:42;1.38;;;0.70;;
21657;SDS011;10990;48.174;9.782;2023-09-19T09:54:12;1.40;;;0.65;;
21657;SDS011;10990;48.174;9.782;2023-09-19T09:56:55;1.83;;;0.77;;
21657;SDS011;10990;48.174;9.782;2023-09-19T10:02:12;1.15;;;0.77;;
21657;SDS011;10990;48.174;9.782;2023-09-19T10:04:41;1.75;;;0.88;;
21657;SDS011;10990;48.174;9.782;2023-09-19T10:07:26;0.60;;;0.60;;
21657;SDS011;10990;48.174;9.782;2023-09-19T10:09:57;0.90;;;0.90;;
21657;SDS011;10990;48.174;9.782;2023-09-19T10:12:36;1.30;;;0.90;;
21657;SDS011;10990;48.174;9.782;2023-09-19T10:15:08;1.00;;;0.80;;
21657;SDS011;10990;48.174;9.782;2023-09-19T10:17:37;1.13;;;0.85;;
21657;SDS011;10990;48.174;9.782;2023-09-19T10:20:09;0.80;;;0.80;;
21657;SDS011;10990;48.174;9.782;2023-09-19T10:22:58;1.80;;;0.80;;
21657;SDS011;10990;48.174;9.782;2023-09-19T10:25:27;1.00;;;0.70;;
21657;SDS011;10990;48.174;9.782;2023-09-19T10:27:57;0.80;;;0.80;;
21657;SDS011;10990;48.174;9.782;2023-09-19T10:30:28;3.40;;;1.00;;
21657;SDS011;10990;48.174;9.782;2023-09-19T10:33:00;2.58;;;0.88;;
21657;SDS011;10990;48.174;9.782;2023-09-19T10:35:28;0.95;;;0.70;;
21657;SDS011;10990;48.174;9.782;2023-09-19T10:37:57;1.10;;;1.00;;
21657;SDS011;10990;48.174;9.782;2023-09-19T10:40:26;1.20;;;0.95;;
21657;SDS011;10990;48.174;9.782;2023-09-19T10:43:01;1.52;;;1.00;;
21657;SDS011;10990;48.174;9.782;2023-09-19T10:45:30;0.98;;;0.98;;
21657;SDS011;10990;48.174;9.782;2023-09-19T10:47:58;0.90;;;0.90;;
21657;SDS011;10990;48.174;9.782;2023-09-19T10:50:27;1.10;;;0.80;;
21657;SDS011;10990;48.174;9.782;2023-09-19T10:52:59;1.45;;;1.20;;
21657;SDS011;10990;48.174;9.782;2023-09-19T10:55:32;1.42;;;1.00;;
21657;SDS011;10990;48.174;9.782;2023-09-19T10:58:02;0.98;;;0.80;;
21657;SDS011;10990;48.174;9.782;2023-09-19T11:00:52;1.40;;;1.00;;
21657;SDS011;10990;48.174;9.782;2023-09-19T11:03:20;1.27;;;0.85;;
21657;SDS011;10990;48.174;9.782;2023-09-19T11:06:02;3.28;;;1.00;;
21657;SDS011;10990;48.174;9.782;2023-09-19T11:11:46;0.88;;;0.80;;
21657;SDS011;10990;48.174;9.782;2023-09-19T11:20:20;2.28;;;0.90;;
21657;SDS011;10990;48.174;9.782;2023-09-19T11:23:17;0.82;;;0.80;;
21657;SDS011;10990;48.174;9.782;2023-09-19T11:25:48;1.92;;;0.90;;
21657;SDS011;10990;48.174;9.782;2023-09-19T11:28:29;1.10;;;0.90;;
21657;SDS011;10990;48.174;9.782;2023-09-19T11:30:58;2.05;;;1.00;;
21657;SDS011;10990;48.174;9.782;2023-09-19T11:33:26;2.00;;;1.00;;
21657;SDS011;10990;48.174;9.782;2023-09-19T11:35:58;1.17;;;1.00;;
21657;SDS011;10990;48.174;9.782;2023-09-19T11:41:46;0.82;;;0.82;;
21657;SDS011;10990;48.174;9.782;2023-09-19T11:44:34;2.63;;;1.08;;
21657;SDS011;10990;48.174;9.782;2023-09-19T11:47:05;1.45;;;0.80;;
21657;SDS011;10990;48.174;9.782;2023-09-19T11:49:34;1.40;;;0.93;;
21657;SDS011;10990;48.174;9.782;2023-09-19T11:52:06;1.17;;;1.00;;
21657;SDS011;10990;48.174;9.782;2023-09-19T11:54:34;1.08;;;0.90;;
21657;SDS011;10990;48.174;9.782;2023-09-19T11:57:05;2.08;;;0.95;;
21657;SDS011;10990;48.174;9.782;2023-09-19T11:59:32;2.42;;;1.05;;
21657;SDS011;10990;48.174;9.782;2023-09-19T12:02:00;1.10;;;0.98;;
21657;SDS011;10990;48.174;9.782;2023-09-19T12:04:35;2.80;;;1.00;;
21657;SDS011;10990;48.174;9.782;2023-09-19T12:07:04;1.40;;;1.08;;
21657;SDS011;10990;48.174;9.782;2023-09-19T12:09:36;3.30;;;1.10;;
21657;SDS011;10990;48.174;9.782;2023-09-19T12:12:05;1.23;;;0.90;;
21657;SDS011;10990;48.174;9.782;2023-09-19T12:14:32;3.75;;;1.15;;
21657;SDS011;10990;48.174;9.782;2023-09-19T12:17:00;1.35;;;1.00;;
21657;SDS011;10990;48.174;9.782;2023-09-19T12:19:28;0.98;;;0.80;;
21657;SDS011;10990;48.174;9.782;2023-09-19T12:21:57;1.30;;;0.88;;
21657;SDS011;10990;48.174;9.782;2023-09-19T12:24:29;3.22;;;1.20;;
21657;SDS011;10990;48.174;9.782;2023-09-19T12:27:00;0.93;;;0.90;;
21657;SDS011;10990;48.174;9.782;2023-09-19T12:29:30;1.10;;;0.90;;
21657;SDS011;10990;48.174;9.782;2023-09-19T12:31:59;1.60;;;1.00;;
21657;SDS011;10990;48.174;9.782;2023-09-19T12:34:29;2.63;;;0.85;;
21657;SDS011;10990;48.174;9.782;2023-09-19T12:37:04;2.25;;;1.08;;
21657;SDS011;10990;48.174;9.782;2023-09-19T12:39:37;2.20;;;1.00;;
21657;SDS011;10990;48.174;9.782;2023-09-19T12:42:07;2.63;;;0.88;;
21657;SDS011;10990;48.174;9.782;2023-09-19T12:44:35;1.20;;;1.00;;
21657;SDS011;10990;48.174;9.782;2023-09-19T12:47:10;1.17;;;1.00;;
21657;SDS011;10990;48.174;9.782;2023-09-19T12:52:40;2.13;;;0.90;;
21657;SDS011;10990;48.174;9.782;2023-09-19T12:55:08;1.52;;;1.05;;
21657;SDS011;10990;48.174;9.782;2023-09-19T12:57:54;1.55;;;1.02;;
21657;SDS011;10990;48.174;9.782;2023-09-19T13:00:30;1.55;;;1.00;;
21657;SDS011;10990;48.174;9.782;2023-09-19T13:03:16;1.50;;;0.90;;
21657;SDS011;10990;48.174;9.782;2023-09-19T13:05:50;2.83;;;1.20;;
21657;SDS011;10990;48.174;9.782;2023-09-19T13:08:21;1.05;;;0.95;;
21657;SDS011;10990;48.174;9.782;2023-09-19T13:11:03;1.42;;;1.00;;
21657;SDS011;10990;48.174;9.782;2023-09-19T13:13:42;1.10;;;1.00;;
21657;SDS011;10990;48.174;9.782;2023-09-19T13:16:13;1.50;;;1.00;;
21657;SDS011;10990;48.174;9.782;2023-09-19T13:18:45;1.77;;;0.90;;
21657;SDS011;10990;48.174;9.782;2023-09-19T13:21:15;1.20;;;1.00;;
21657;SDS011;10990;48.174;9.782;2023-09-19T13:23:52;1.20;;;0.90;;
21657;SDS011;10990;48.174;9.782;2023-09-19T13:26:24;1.98;;;1.10;;
21657;SDS011;10990;48.174;9.782;2023-09-19T13:28:51;1.23;;;1.00;;
21657;SDS011;10990;48.174;9.782;2023-09-19T13:31:18;2.08;;;1.13;;
21657;SDS011;10990;48.174;9.782;2023-09-19T13:33:45;0.95;;;0.90;;
21657;SDS011;10990;48.174;9.782;2023-09-19T13:36:12;1.13;;;1.00;;
21657;SDS011;10990;48.174;9.782;2023-09-19T13:38:39;0.93;;;0.90;;
21657;SDS011;10990;48.174;9.782;2023-09-19T13:41:09;2.20;;;1.20;;
21657;SDS011;10990;48.174;9.782;2023-09-19T13:43:36;3.13;;;1.05;;
21657;SDS011;10990;48.174;9.782;2023-09-19T13:46:04;1.20;;;0.95;;
21657;SDS011;10990;48.174;9.782;2023-09-19T13:48:32;1.30;;;1.10;;
21657;SDS011;10990;48.174;9.782;2023-09-19T13:51:01;1.80;;;1.08;;
21657;SDS011;10990;48.174;9.782;2023-09-19T13:53:28;1.20;;;0.95;;
21657;SDS011;10990;48.174;9.782;2023-09-19T13:55:55;2.28;;;1.20;;
21657;SDS011;10990;48.174;9.782;2023-09-19T13:58:24;1.40;;;0.93;;
21657;SDS011;10990;48.174;9.782;2023-09-19T14:00:52;2.10;;;1.00;;
21657;SDS011;10990;48.174;9.782;2023-09-19T14:03:20;2.58;;;1.10;;
21657;SDS011;10990;48.174;9.782;2023-09-19T14:05:47;2.60;;;1.17;;
21657;SDS011;10990;48.174;9.782;2023-09-19T14:08:16;1.98;;;1.08;;
21657;SDS011;10990;48.174;9.782;2023-09-19T14:10:43;2.17;;;1.10;;
21657;SDS011;10990;48.174;9.782;2023-09-19T14:13:10;1.73;;;1.00;;
21657;SDS011;10990;48.174;9.782;2023-09-19T14:15:39;1.50;;;0.98;;
21657;SDS011;10990;48.174;9.782;2023-09-19T14:18:07;2.40;;;1.05;;
21657;SDS011;10990;48.174;9.782;2023-09-19T14:20:37;2.13;;;1.13;;
21657;SDS011;10990;48.174;9.782;2023-09-19T14:23:05;1.05;;;0.95;;
21657;SDS011;10990;48.174;9.782;2023-09-19T14:25:33;1.90;;;1.10;;
21657;SDS011;10990;48.174;9.782;2023-09-19T14:28:01;1.75;;;1.00;;
21657;SDS011;10990;48.174;9.782;2023-09-19T14:30:28;1.58;;;0.90;;
21657;SDS011;10990;48.174;9.782;2023-09-19T14:32:56;2.38;;;1.05;;
21657;SDS011;10990;48.174;9.782;2023-09-19T14:35:23;2.60;;;1.13;;
21657;SDS011;10990;48.174;9.782;2023-09-19T14:37:50;1.35;;;0.82;;
21657;SDS011;10990;48.174;9.782;2023-09-19T14:40:17;2.78;;;1.10;;
21657;SDS011;10990;48.174;9.782;2023-09-19T14:42:45;1.55;;;0.90;;
21657;SDS011;10990;48.174;9.782;2023-09-19T14:45:11;1.77;;;1.15;;
21657;SDS011;10990;48.174;9.782;2023-09-19T14:47:41;1.67;;;1.02;;
21657;SDS011;10990;48.174;9.782;2023-09-19T14:50:10;2.63;;;1.00;;
21657;SDS011;10990;48.174;9.782;2023-09-19T14:52:37;3.17;;;0.98;;
21657;SDS011;10990;48.174;9.782;2023-09-19T14:55:05;1.98;;;0.95;;
21657;SDS011;10990;48.174;9.782;2023-09-19T14:57:34;1.80;;;0.90;;
21657;SDS011;10990;48.174;9.782;2023-09-19T15:00:05;1.75;;;0.90;;
21657;SDS011;10990;48.174;9.782;2023-09-19T15:02:37;3.22;;;1.00;;
21657;SDS011;10990;48.174;9.782;2023-09-19T15:05:04;1.50;;;0.90;;
21657;SDS011;10990;48.174;9.782;2023-09-19T15:07:34;1.58;;;1.00;;
21657;SDS011;10990;48.174;9.782;2023-09-19T15:10:01;1.13;;;0.88;;
21657;SDS011;10990;48.174;9.782;2023-09-19T15:12:32;2.65;;;1.10;;
21657;SDS011;10990;48.174;9.782;2023-09-19T15:15:00;1.65;;;1.27;;
21657;SDS011;10990;48.174;9.782;2023-09-19T15:17:28;2.13;;;1.05;;
21657;SDS011;10990;48.174;9.782;2023-09-19T15:19:55;1.55;;;0.88;;
21657;SDS011;10990;48.174;9.782;2023-09-19T15:22:21;3.30;;;1.10;;